sensor_id;sensor_type;location;lat;lon;timestamp;temperature;humidity
53268;DHT22;39156;51.176;6.738;2024-01-30T00:01:32;7.90;81.00
53268;DHT22;39156;51.176;6.738;2024-01-30T00:03:59;7.90;81.00
53268;DHT22;39156;51.176;6.738;2024-01-30T00:06:26;7.90;81.00
53268;DHT22;39156;51.176;6.738;2024-01-30T00:08:53;7.80;81.00
53268;DHT22;39156;51.176;6.738;2024-01-30T00:11:20;7.90;81.10
53268;DHT22;39156;51.176;6.738;2024-01-30T00:13:47;7.90;81.10
53268;DHT22;39156;51.176;6.738;2024-01-30T00:16:21;8.00;81.20
53268;DHT22;39156;51.176;6.738;2024-01-30T00:18:49;7.90;81.50
53268;DHT22;39156;51.176;6.738;2024-01-30T00:21:16;7.80;81.10
53268;DHT22;39156;51.176;6.738;2024-01-30T00:23:43;7.90;81.20
53268;DHT22;39156;51.176;6.738;2024-01-30T00:26:10;7.90;81.90
53268;DHT22;39156;51.176;6.738;2024-01-30T00:28:38;7.90;81.30
53268;DHT22;39156;51.176;6.738;2024-01-30T00:31:05;7.80;81.80
53268;DHT22;39156;51.176;6.738;2024-01-30T00:33:33;7.70;81.20
53268;DHT22;39156;51.176;6.738;2024-01-30T00:36:00;7.70;81.30
53268;DHT22;39156;51.176;6.738;2024-01-30T00:38:26;7.80;81.30
53268;DHT22;39156;51.176;6.738;2024-01-30T00:40:53;7.70;81.30
53268;DHT22;39156;51.176;6.738;2024-01-30T00:43:20;7.80;81.40
53268;DHT22;39156;51.176;6.738;2024-01-30T00:45:47;7.60;81.20
53268;DHT22;39156;51.176;6.738;2024-01-30T00:48:14;7.60;81.20
53268;DHT22;39156;51.176;6.738;2024-01-30T00:50:42;7.70;81.30
53268;DHT22;39156;51.176;6.738;2024-01-30T00:53:09;7.70;81.40
53268;DHT22;39156;51.176;6.738;2024-01-30T00:55:36;7.60;81.30
53268;DHT22;39156;51.176;6.738;2024-01-30T00:58:03;7.60;81.30
53268;DHT22;39156;51.176;6.738;2024-01-30T01:00:31;7.70;81.40
53268;DHT22;39156;51.176;6.738;2024-01-30T01:02:58;7.60;81.30
53268;DHT22;39156;51.176;6.738;2024-01-30T01:05:25;7.50;81.30
53268;DHT22;39156;51.176;6.738;2024-01-30T01:07:53;7.60;81.40
53268;DHT22;39156;51.176;6.738;2024-01-30T01:10:20;7.50;81.50
53268;DHT22;39156;51.176;6.738;2024-01-30T01:12:48;7.40;81.40
53268;DHT22;39156;51.176;6.738;2024-01-30T01:15:15;7.40;81.60
53268;DHT22;39156;51.176;6.738;2024-01-30T01:17:42;7.40;82.00
53268;DHT22;39156;51.176;6.738;2024-01-30T01:20:09;7.40;81.50
53268;DHT22;39156;51.176;6.738;2024-01-30T01:22:37;7.30;81.60
53268;DHT22;39156;51.176;6.738;2024-01-30T01:25:07;7.30;81.80
53268;DHT22;39156;51.176;6.738;2024-01-30T01:27:34;7.30;82.00
53268;DHT22;39156;51.176;6.738;2024-01-30T01:30:07;7.30;82.00
53268;DHT22;39156;51.176;6.738;2024-01-30T01:32:36;7.30;82.00
53268;DHT22;39156;51.176;6.738;2024-01-30T01:35:04;7.30;82.10
53268;DHT22;39156;51.176;6.738;2024-01-30T01:37:31;7.30;82.10
53268;DHT22;39156;51.176;6.738;2024-01-30T01:39:58;7.20;82.10
53268;DHT22;39156;51.176;6.738;2024-01-30T01:42:27;7.30;82.20
53268;DHT22;39156;51.176;6.738;2024-01-30T01:44:54;7.20;82.20
53268;DHT22;39156;51.176;6.738;2024-01-30T01:47:21;7.20;82.90
53268;DHT22;39156;51.176;6.738;2024-01-30T01:49:48;7.10;82.80
53268;DHT22;39156;51.176;6.738;2024-01-30T01:52:15;7.20;82.30
53268;DHT22;39156;51.176;6.738;2024-01-30T01:54:41;7.10;82.40
53268;DHT22;39156;51.176;6.738;2024-01-30T01:57:08;7.20;82.80
53268;DHT22;39156;51.176;6.738;2024-01-30T01:59:37;7.10;82.10
53268;DHT22;39156;51.176;6.738;2024-01-30T02:02:04;7.20;82.30
53268;DHT22;39156;51.176;6.738;2024-01-30T02:04:33;7.10;82.30
53268;DHT22;39156;51.176;6.738;2024-01-30T02:06:59;7.10;82.30
53268;DHT22;39156;51.176;6.738;2024-01-30T02:09:26;7.00;82.40
53268;DHT22;39156;51.176;6.738;2024-01-30T02:11:53;7.10;82.50
53268;DHT22;39156;51.176;6.738;2024-01-30T02:14:21;7.00;82.40
53268;DHT22;39156;51.176;6.738;2024-01-30T02:16:49;7.10;82.50
53268;DHT22;39156;51.176;6.738;2024-01-30T02:19:16;7.00;82.60
53268;DHT22;39156;51.176;6.738;2024-01-30T02:21:44;7.00;82.60
53268;DHT22;39156;51.176;6.738;2024-01-30T02:24:11;7.20;82.70
53268;DHT22;39156;51.176;6.738;2024-01-30T02:26:38;7.00;82.60
53268;DHT22;39156;51.176;6.738;2024-01-30T02:29:05;7.00;83.20
53268;DHT22;39156;51.176;6.738;2024-01-30T02:31:32;7.10;82.60
53268;DHT22;39156;51.176;6.738;2024-01-30T02:33:59;7.10;82.70
53268;DHT22;39156;51.176;6.738;2024-01-30T02:36:25;7.10;82.80
53268;DHT22;39156;51.176;6.738;2024-01-30T02:38:54;7.10;82.80
53268;DHT22;39156;51.176;6.738;2024-01-30T02:41:20;7.10;82.90
53268;DHT22;39156;51.176;6.738;2024-01-30T02:43:47;7.10;82.90
53268;DHT22;39156;51.176;6.738;2024-01-30T02:46:14;7.20;83.00
53268;DHT22;39156;51.176;6.738;2024-01-30T02:48:41;7.10;82.90
53268;DHT22;39156;51.176;6.738;2024-01-30T02:51:08;7.10;82.90
53268;DHT22;39156;51.176;6.738;2024-01-30T02:53:35;7.10;82.90
53268;DHT22;39156;51.176;6.738;2024-01-30T02:56:04;7.10;82.90
53268;DHT22;39156;51.176;6.738;2024-01-30T02:58:35;7.10;82.90
53268;DHT22;39156;51.176;6.738;2024-01-30T03:01:02;7.10;82.90
53268;DHT22;39156;51.176;6.738;2024-01-30T03:03:29;7.10;83.00
53268;DHT22;39156;51.176;6.738;2024-01-30T03:05:55;7.20;83.40
53268;DHT22;39156;51.176;6.738;2024-01-30T03:08:22;7.20;82.90
53268;DHT22;39156;51.176;6.738;2024-01-30T03:10:49;7.20;83.00
53268;DHT22;39156;51.176;6.738;2024-01-30T03:13:17;7.10;83.00
53268;DHT22;39156;51.176;6.738;2024-01-30T03:15:44;7.20;83.10
53268;DHT22;39156;51.176;6.738;2024-01-30T03:18:11;7.20;83.10
53268;DHT22;39156;51.176;6.738;2024-01-30T03:20:38;7.30;83.20
53268;DHT22;39156;51.176;6.738;2024-01-30T03:23:04;7.20;83.10
53268;DHT22;39156;51.176;6.738;2024-01-30T03:25:31;7.20;83.10
53268;DHT22;39156;51.176;6.738;2024-01-30T03:27:58;7.20;83.10
53268;DHT22;39156;51.176;6.738;2024-01-30T03:30:26;7.30;83.20
53268;DHT22;39156;51.176;6.738;2024-01-30T03:32:53;7.20;83.20
53268;DHT22;39156;51.176;6.738;2024-01-30T03:35:20;7.20;83.20
53268;DHT22;39156;51.176;6.738;2024-01-30T03:37:47;7.30;83.20
53268;DHT22;39156;51.176;6.738;2024-01-30T03:40:14;7.30;83.10
53268;DHT22;39156;51.176;6.738;2024-01-30T03:42:40;7.30;83.10
53268;DHT22;39156;51.176;6.738;2024-01-30T03:45:08;7.30;83.40
53268;DHT22;39156;51.176;6.738;2024-01-30T03:47:37;7.30;82.90
53268;DHT22;39156;51.176;6.738;2024-01-30T03:50:04;7.30;82.90
53268;DHT22;39156;51.176;6.738;2024-01-30T03:52:31;7.30;83.00
53268;DHT22;39156;51.176;6.738;2024-01-30T03:54:58;7.40;83.00
53268;DHT22;39156;51.176;6.738;2024-01-30T03:57:25;7.30;82.90
53268;DHT22;39156;51.176;6.738;2024-01-30T03:59:52;7.30;82.90
53268;DHT22;39156;51.176;6.738;2024-01-30T04:02:19;7.30;82.90
53268;DHT22;39156;51.176;6.738;2024-01-30T04:04:47;7.30;82.80
53268;DHT22;39156;51.176;6.738;2024-01-30T04:07:14;7.20;82.80
53268;DHT22;39156;51.176;6.738;2024-01-30T04:09:40;7.20;82.80
53268;DHT22;39156;51.176;6.738;2024-01-30T04:12:07;7.20;82.90
53268;DHT22;39156;51.176;6.738;2024-01-30T04:14:34;7.10;82.80
53268;DHT22;39156;51.176;6.738;2024-01-30T04:17:01;7.30;82.90
53268;DHT22;39156;51.176;6.738;2024-01-30T04:19:28;7.20;82.90
53268;DHT22;39156;51.176;6.738;2024-01-30T04:21:56;7.10;82.90
53268;DHT22;39156;51.176;6.738;2024-01-30T04:24:23;7.00;82.90
53268;DHT22;39156;51.176;6.738;2024-01-30T04:26:50;7.10;83.00
53268;DHT22;39156;51.176;6.738;2024-01-30T04:29:16;7.00;83.00
53268;DHT22;39156;51.176;6.738;2024-01-30T04:31:44;7.30;83.30
53268;DHT22;39156;51.176;6.738;2024-01-30T04:34:11;7.10;83.20
53268;DHT22;39156;51.176;6.738;2024-01-30T04:36:38;7.00;83.20
53268;DHT22;39156;51.176;6.738;2024-01-30T04:39:06;7.10;83.30
53268;DHT22;39156;51.176;6.738;2024-01-30T04:41:34;7.00;83.30
53268;DHT22;39156;51.176;6.738;2024-01-30T04:44:00;7.00;83.30
53268;DHT22;39156;51.176;6.738;2024-01-30T04:46:27;7.00;83.40
53268;DHT22;39156;51.176;6.738;2024-01-30T04:48:54;7.00;83.50
53268;DHT22;39156;51.176;6.738;2024-01-30T04:51:21;6.90;83.60
53268;DHT22;39156;51.176;6.738;2024-01-30T04:53:48;7.00;83.70
53268;DHT22;39156;51.176;6.738;2024-01-30T04:56:16;7.00;83.70
53268;DHT22;39156;51.176;6.738;2024-01-30T04:58:43;6.90;83.80
53268;DHT22;39156;51.176;6.738;2024-01-30T05:01:10;6.90;84.50
53268;DHT22;39156;51.176;6.738;2024-01-30T05:03:41;6.80;83.90
53268;DHT22;39156;51.176;6.738;2024-01-30T05:06:08;6.90;84.00
53268;DHT22;39156;51.176;6.738;2024-01-30T05:08:35;6.90;84.00
53268;DHT22;39156;51.176;6.738;2024-01-30T05:11:02;6.90;84.10
53268;DHT22;39156;51.176;6.738;2024-01-30T05:13:30;6.90;84.10
53268;DHT22;39156;51.176;6.738;2024-01-30T05:15:57;6.90;84.10
53268;DHT22;39156;51.176;6.738;2024-01-30T05:18:24;6.90;84.10
53268;DHT22;39156;51.176;6.738;2024-01-30T05:20:51;6.90;84.20
53268;DHT22;39156;51.176;6.738;2024-01-30T05:23:18;7.00;84.10
53268;DHT22;39156;51.176;6.738;2024-01-30T05:25:44;6.90;84.10
53268;DHT22;39156;51.176;6.738;2024-01-30T05:28:11;7.00;84.20
53268;DHT22;39156;51.176;6.738;2024-01-30T05:30:40;6.90;84.20
53268;DHT22;39156;51.176;6.738;2024-01-30T05:33:07;6.90;84.20
53268;DHT22;39156;51.176;6.738;2024-01-30T05:35:35;7.00;84.30
53268;DHT22;39156;51.176;6.738;2024-01-30T05:38:01;6.90;84.30
53268;DHT22;39156;51.176;6.738;2024-01-30T05:40:29;6.80;84.20
53268;DHT22;39156;51.176;6.738;2024-01-30T05:42:55;6.90;84.20
53268;DHT22;39156;51.176;6.738;2024-01-30T05:45:23;6.90;84.20
53268;DHT22;39156;51.176;6.738;2024-01-30T05:47:51;6.90;84.30
53268;DHT22;39156;51.176;6.738;2024-01-30T05:50:19;6.90;84.30
53268;DHT22;39156;51.176;6.738;2024-01-30T05:52:48;6.80;84.20
53268;DHT22;39156;51.176;6.738;2024-01-30T05:55:15;6.90;84.30
53268;DHT22;39156;51.176;6.738;2024-01-30T05:57:42;6.80;84.30
53268;DHT22;39156;51.176;6.738;2024-01-30T06:00:09;6.80;84.20
53268;DHT22;39156;51.176;6.738;2024-01-30T06:02:36;6.80;84.30
53268;DHT22;39156;51.176;6.738;2024-01-30T06:05:05;6.80;84.30
53268;DHT22;39156;51.176;6.738;2024-01-30T06:07:32;6.70;84.40
53268;DHT22;39156;51.176;6.738;2024-01-30T06:09:59;6.70;84.30
53268;DHT22;39156;51.176;6.738;2024-01-30T06:12:27;6.70;84.40
53268;DHT22;39156;51.176;6.738;2024-01-30T06:14:54;6.70;84.40
53268;DHT22;39156;51.176;6.738;2024-01-30T06:17:22;6.70;84.50
53268;DHT22;39156;51.176;6.738;2024-01-30T06:19:49;6.80;84.60
53268;DHT22;39156;51.176;6.738;2024-01-30T06:22:17;6.70;85.10
53268;DHT22;39156;51.176;6.738;2024-01-30T06:24:44;6.80;84.60
53268;DHT22;39156;51.176;6.738;2024-01-30T06:27:13;6.70;84.60
53268;DHT22;39156;51.176;6.738;2024-01-30T06:29:40;6.70;84.70
53268;DHT22;39156;51.176;6.738;2024-01-30T06:32:07;6.70;84.70
53268;DHT22;39156;51.176;6.738;2024-01-30T06:34:33;6.80;84.80
53268;DHT22;39156;51.176;6.738;2024-01-30T06:37:00;6.70;84.90
53268;DHT22;39156;51.176;6.738;2024-01-30T06:39:29;6.70;84.90
53268;DHT22;39156;51.176;6.738;2024-01-30T06:41:56;6.60;85.20
53268;DHT22;39156;51.176;6.738;2024-01-30T06:44:22;6.70;84.90
53268;DHT22;39156;51.176;6.738;2024-01-30T06:46:49;6.80;85.10
53268;DHT22;39156;51.176;6.738;2024-01-30T06:49:16;6.70;85.20
53268;DHT22;39156;51.176;6.738;2024-01-30T06:51:43;6.90;85.30
53268;DHT22;39156;51.176;6.738;2024-01-30T06:54:10;6.80;85.30
53268;DHT22;39156;51.176;6.738;2024-01-30T06:56:38;6.80;85.30
53268;DHT22;39156;51.176;6.738;2024-01-30T06:59:05;6.80;85.20
53268;DHT22;39156;51.176;6.738;2024-01-30T07:01:32;6.90;85.20
53268;DHT22;39156;51.176;6.738;2024-01-30T07:03:59;6.90;85.20
53268;DHT22;39156;51.176;6.738;2024-01-30T07:06:26;7.00;85.40
53268;DHT22;39156;51.176;6.738;2024-01-30T07:08:53;6.80;84.80
53268;DHT22;39156;51.176;6.738;2024-01-30T07:11:20;7.00;84.90
53268;DHT22;39156;51.176;6.738;2024-01-30T07:13:49;6.90;84.80
53268;DHT22;39156;51.176;6.738;2024-01-30T07:16:16;6.90;84.80
53268;DHT22;39156;51.176;6.738;2024-01-30T07:18:43;6.90;84.70
53268;DHT22;39156;51.176;6.738;2024-01-30T07:21:11;7.00;84.70
53268;DHT22;39156;51.176;6.738;2024-01-30T07:23:38;7.00;84.80
53268;DHT22;39156;51.176;6.738;2024-01-30T07:26:05;7.00;84.70
53268;DHT22;39156;51.176;6.738;2024-01-30T07:28:34;6.90;84.60
53268;DHT22;39156;51.176;6.738;2024-01-30T07:31:02;6.90;84.60
53268;DHT22;39156;51.176;6.738;2024-01-30T07:33:29;6.90;84.60
53268;DHT22;39156;51.176;6.738;2024-01-30T07:35:56;7.00;84.70
53268;DHT22;39156;51.176;6.738;2024-01-30T07:38:23;7.10;84.80
53268;DHT22;39156;51.176;6.738;2024-01-30T07:40:50;7.00;84.70
53268;DHT22;39156;51.176;6.738;2024-01-30T07:43:17;7.10;84.90
53268;DHT22;39156;51.176;6.738;2024-01-30T07:45:45;7.00;84.90
53268;DHT22;39156;51.176;6.738;2024-01-30T07:48:13;7.10;84.90
53268;DHT22;39156;51.176;6.738;2024-01-30T07:50:40;7.10;84.90
53268;DHT22;39156;51.176;6.738;2024-01-30T07:53:07;7.00;84.90
53268;DHT22;39156;51.176;6.738;2024-01-30T07:55:34;7.10;84.90
53268;DHT22;39156;51.176;6.738;2024-01-30T07:58:01;7.10;84.90
53268;DHT22;39156;51.176;6.738;2024-01-30T08:00:30;7.10;84.80
53268;DHT22;39156;51.176;6.738;2024-01-30T08:02:58;7.10;84.80
53268;DHT22;39156;51.176;6.738;2024-01-30T08:05:26;7.10;84.70
53268;DHT22;39156;51.176;6.738;2024-01-30T08:07:53;7.10;84.80
53268;DHT22;39156;51.176;6.738;2024-01-30T08:10:20;7.20;84.80
53268;DHT22;39156;51.176;6.738;2024-01-30T08:12:47;7.20;84.80
53268;DHT22;39156;51.176;6.738;2024-01-30T08:15:14;7.20;85.10
53268;DHT22;39156;51.176;6.738;2024-01-30T08:17:41;7.30;84.70
53268;DHT22;39156;51.176;6.738;2024-01-30T08:20:08;7.20;84.70
53268;DHT22;39156;51.176;6.738;2024-01-30T08:22:39;7.20;84.80
53268;DHT22;39156;51.176;6.738;2024-01-30T08:25:07;7.30;84.90
53268;DHT22;39156;51.176;6.738;2024-01-30T08:27:35;7.30;84.90
53268;DHT22;39156;51.176;6.738;2024-01-30T08:30:04;7.30;84.90
53268;DHT22;39156;51.176;6.738;2024-01-30T08:32:32;7.40;84.90
53268;DHT22;39156;51.176;6.738;2024-01-30T08:34:59;7.50;84.90
53268;DHT22;39156;51.176;6.738;2024-01-30T08:37:29;7.40;84.90
53268;DHT22;39156;51.176;6.738;2024-01-30T08:39:57;7.50;85.00
53268;DHT22;39156;51.176;6.738;2024-01-30T08:42:24;7.50;84.90
53268;DHT22;39156;51.176;6.738;2024-01-30T08:44:50;7.60;84.90
53268;DHT22;39156;51.176;6.738;2024-01-30T08:47:18;7.50;84.80
53268;DHT22;39156;51.176;6.738;2024-01-30T08:49:45;7.70;84.90
53268;DHT22;39156;51.176;6.738;2024-01-30T08:52:12;7.70;85.30
53268;DHT22;39156;51.176;6.738;2024-01-30T08:54:39;7.80;84.70
53268;DHT22;39156;51.176;6.738;2024-01-30T08:57:07;7.90;84.70
53268;DHT22;39156;51.176;6.738;2024-01-30T08:59:34;7.90;84.50
53268;DHT22;39156;51.176;6.738;2024-01-30T09:02:01;8.00;84.40
53268;DHT22;39156;51.176;6.738;2024-01-30T09:04:29;8.00;84.20
53268;DHT22;39156;51.176;6.738;2024-01-30T09:06:55;8.10;84.10
53268;DHT22;39156;51.176;6.738;2024-01-30T09:09:22;8.10;84.00
53268;DHT22;39156;51.176;6.738;2024-01-30T09:11:49;8.10;83.90
53268;DHT22;39156;51.176;6.738;2024-01-30T09:14:17;8.30;83.90
53268;DHT22;39156;51.176;6.738;2024-01-30T09:16:45;8.20;83.60
53268;DHT22;39156;51.176;6.738;2024-01-30T09:19:13;8.30;83.70
53268;DHT22;39156;51.176;6.738;2024-01-30T09:21:40;8.30;83.60
53268;DHT22;39156;51.176;6.738;2024-01-30T09:24:07;8.20;83.50
53268;DHT22;39156;51.176;6.738;2024-01-30T09:26:34;8.40;83.50
53268;DHT22;39156;51.176;6.738;2024-01-30T09:29:01;8.40;83.40
53268;DHT22;39156;51.176;6.738;2024-01-30T09:31:29;8.50;83.40
53268;DHT22;39156;51.176;6.738;2024-01-30T09:33:56;8.50;83.30
53268;DHT22;39156;51.176;6.738;2024-01-30T09:36:23;8.60;83.30
53268;DHT22;39156;51.176;6.738;2024-01-30T09:38:50;8.60;83.10
53268;DHT22;39156;51.176;6.738;2024-01-30T09:41:19;8.70;83.00
53268;DHT22;39156;51.176;6.738;2024-01-30T09:43:48;8.70;82.80
53268;DHT22;39156;51.176;6.738;2024-01-30T09:46:16;8.80;82.70
53268;DHT22;39156;51.176;6.738;2024-01-30T09:48:47;8.90;82.60
53268;DHT22;39156;51.176;6.738;2024-01-30T09:51:14;8.90;82.60
53268;DHT22;39156;51.176;6.738;2024-01-30T09:53:42;8.90;82.50
53268;DHT22;39156;51.176;6.738;2024-01-30T09:56:10;8.90;82.30
53268;DHT22;39156;51.176;6.738;2024-01-30T09:58:38;8.90;82.40
53268;DHT22;39156;51.176;6.738;2024-01-30T10:01:06;9.00;82.50
53268;DHT22;39156;51.176;6.738;2024-01-30T10:03:33;9.00;82.50
53268;DHT22;39156;51.176;6.738;2024-01-30T10:06:01;9.20;82.40
53268;DHT22;39156;51.176;6.738;2024-01-30T10:08:28;9.20;82.20
53268;DHT22;39156;51.176;6.738;2024-01-30T10:10:55;9.30;82.10
53268;DHT22;39156;51.176;6.738;2024-01-30T10:13:22;9.20;81.90
53268;DHT22;39156;51.176;6.738;2024-01-30T10:15:49;9.30;81.80
53268;DHT22;39156;51.176;6.738;2024-01-30T10:18:17;9.30;81.90
53268;DHT22;39156;51.176;6.738;2024-01-30T10:20:44;9.50;82.00
53268;DHT22;39156;51.176;6.738;2024-01-30T10:23:13;9.40;81.80
53268;DHT22;39156;51.176;6.738;2024-01-30T10:25:40;9.60;81.90
53268;DHT22;39156;51.176;6.738;2024-01-30T10:28:07;9.50;81.50
53268;DHT22;39156;51.176;6.738;2024-01-30T10:30:34;9.50;81.40
53268;DHT22;39156;51.176;6.738;2024-01-30T10:33:01;9.60;81.30
53268;DHT22;39156;51.176;6.738;2024-01-30T10:35:28;9.60;81.30
53268;DHT22;39156;51.176;6.738;2024-01-30T10:37:57;9.60;81.20
53268;DHT22;39156;51.176;6.738;2024-01-30T10:40:28;9.60;81.20
53268;DHT22;39156;51.176;6.738;2024-01-30T10:42:55;9.70;81.20
53268;DHT22;39156;51.176;6.738;2024-01-30T10:45:23;9.70;81.20
53268;DHT22;39156;51.176;6.738;2024-01-30T10:47:54;9.70;81.30
53268;DHT22;39156;51.176;6.738;2024-01-30T10:50:24;9.80;81.10
53268;DHT22;39156;51.176;6.738;2024-01-30T10:52:52;9.90;80.90
53268;DHT22;39156;51.176;6.738;2024-01-30T10:55:21;9.90;81.00
53268;DHT22;39156;51.176;6.738;2024-01-30T10:57:51;9.80;80.90
53268;DHT22;39156;51.176;6.738;2024-01-30T11:00:19;9.90;81.00
53268;DHT22;39156;51.176;6.738;2024-01-30T11:02:49;9.90;80.90
53268;DHT22;39156;51.176;6.738;2024-01-30T11:05:23;10.00;81.00
53268;DHT22;39156;51.176;6.738;2024-01-30T11:07:52;10.00;80.80
53268;DHT22;39156;51.176;6.738;2024-01-30T11:10:18;10.00;80.80
53268;DHT22;39156;51.176;6.738;2024-01-30T11:12:46;10.10;80.90
53268;DHT22;39156;51.176;6.738;2024-01-30T11:15:15;10.30;81.00
53268;DHT22;39156;51.176;6.738;2024-01-30T11:17:44;10.20;80.90
53268;DHT22;39156;51.176;6.738;2024-01-30T11:20:14;10.30;80.80
53268;DHT22;39156;51.176;6.738;2024-01-30T11:22:45;10.30;80.80
53268;DHT22;39156;51.176;6.738;2024-01-30T11:25:13;10.30;80.60
53268;DHT22;39156;51.176;6.738;2024-01-30T11:27:41;10.40;80.70
53268;DHT22;39156;51.176;6.738;2024-01-30T11:30:09;10.40;80.50
53268;DHT22;39156;51.176;6.738;2024-01-30T11:32:38;10.50;80.40
53268;DHT22;39156;51.176;6.738;2024-01-30T11:35:05;10.50;80.30
53268;DHT22;39156;51.176;6.738;2024-01-30T11:37:37;10.50;80.10
53268;DHT22;39156;51.176;6.738;2024-01-30T11:40:05;10.60;80.10
53268;DHT22;39156;51.176;6.738;2024-01-30T11:42:34;10.60;80.00
53268;DHT22;39156;51.176;6.738;2024-01-30T11:45:05;10.50;79.90
53268;DHT22;39156;51.176;6.738;2024-01-30T11:47:35;10.60;79.90
53268;DHT22;39156;51.176;6.738;2024-01-30T11:50:04;10.60;79.80
53268;DHT22;39156;51.176;6.738;2024-01-30T11:52:32;10.60;80.00
53268;DHT22;39156;51.176;6.738;2024-01-30T11:55:00;10.70;79.90
53268;DHT22;39156;51.176;6.738;2024-01-30T11:57:28;10.60;79.80
53268;DHT22;39156;51.176;6.738;2024-01-30T11:59:54;10.60;79.80
53268;DHT22;39156;51.176;6.738;2024-01-30T12:02:21;10.70;79.90
53268;DHT22;39156;51.176;6.738;2024-01-30T12:04:48;10.70;79.90
53268;DHT22;39156;51.176;6.738;2024-01-30T12:07:16;10.60;80.00
53268;DHT22;39156;51.176;6.738;2024-01-30T12:09:52;10.60;80.00
53268;DHT22;39156;51.176;6.738;2024-01-30T12:12:21;10.60;80.20
53268;DHT22;39156;51.176;6.738;2024-01-30T12:14:49;10.70;80.50
53268;DHT22;39156;51.176;6.738;2024-01-30T12:17:23;10.70;80.90
53268;DHT22;39156;51.176;6.738;2024-01-30T12:19:51;10.60;81.40
53268;DHT22;39156;51.176;6.738;2024-01-30T12:22:30;10.60;81.80
53268;DHT22;39156;51.176;6.738;2024-01-30T12:24:57;10.70;81.70
53268;DHT22;39156;51.176;6.738;2024-01-30T12:27:24;10.70;82.70
53268;DHT22;39156;51.176;6.738;2024-01-30T12:29:56;10.90;82.50
53268;DHT22;39156;51.176;6.738;2024-01-30T12:32:23;10.70;82.90
53268;DHT22;39156;51.176;6.738;2024-01-30T12:34:50;10.70;83.00
53268;DHT22;39156;51.176;6.738;2024-01-30T12:37:17;10.80;83.30
53268;DHT22;39156;51.176;6.738;2024-01-30T12:39:49;10.80;83.20
53268;DHT22;39156;51.176;6.738;2024-01-30T12:42:16;10.90;83.40
53268;DHT22;39156;51.176;6.738;2024-01-30T12:44:43;10.90;83.40
53268;DHT22;39156;51.176;6.738;2024-01-30T12:47:09;10.90;83.40
53268;DHT22;39156;51.176;6.738;2024-01-30T12:49:36;10.90;83.40
53268;DHT22;39156;51.176;6.738;2024-01-30T12:52:04;11.00;83.40
53268;DHT22;39156;51.176;6.738;2024-01-30T12:54:31;11.10;83.40
53268;DHT22;39156;51.176;6.738;2024-01-30T12:56:59;11.10;83.20
53268;DHT22;39156;51.176;6.738;2024-01-30T12:59:26;11.10;83.20
53268;DHT22;39156;51.176;6.738;2024-01-30T13:01:53;11.20;83.20
53268;DHT22;39156;51.176;6.738;2024-01-30T13:04:20;11.20;83.70
53268;DHT22;39156;51.176;6.738;2024-01-30T13:06:47;11.20;83.00
53268;DHT22;39156;51.176;6.738;2024-01-30T13:09:14;11.30;83.00
53268;DHT22;39156;51.176;6.738;2024-01-30T13:11:41;11.30;83.00
53268;DHT22;39156;51.176;6.738;2024-01-30T13:14:09;11.30;82.90
53268;DHT22;39156;51.176;6.738;2024-01-30T13:16:36;11.30;82.90
53268;DHT22;39156;51.176;6.738;2024-01-30T13:19:03;11.30;82.80
53268;DHT22;39156;51.176;6.738;2024-01-30T13:21:30;11.30;82.90
53268;DHT22;39156;51.176;6.738;2024-01-30T13:23:56;11.30;82.60
53268;DHT22;39156;51.176;6.738;2024-01-30T13:26:23;11.30;82.60
53268;DHT22;39156;51.176;6.738;2024-01-30T13:28:50;11.40;82.60
53268;DHT22;39156;51.176;6.738;2024-01-30T13:31:19;11.30;82.70
53268;DHT22;39156;51.176;6.738;2024-01-30T13:33:46;11.40;82.70
53268;DHT22;39156;51.176;6.738;2024-01-30T13:36:14;11.30;82.60
53268;DHT22;39156;51.176;6.738;2024-01-30T13:38:41;11.30;82.70
53268;DHT22;39156;51.176;6.738;2024-01-30T13:41:08;11.40;82.70
53268;DHT22;39156;51.176;6.738;2024-01-30T13:43:35;11.30;82.80
53268;DHT22;39156;51.176;6.738;2024-01-30T13:46:02;11.20;82.50
53268;DHT22;39156;51.176;6.738;2024-01-30T13:48:31;11.50;82.70
53268;DHT22;39156;51.176;6.738;2024-01-30T13:50:58;11.30;82.80
53268;DHT22;39156;51.176;6.738;2024-01-30T13:53:25;11.20;82.70
53268;DHT22;39156;51.176;6.738;2024-01-30T13:55:52;11.40;82.80
53268;DHT22;39156;51.176;6.738;2024-01-30T13:58:19;11.30;82.90
53268;DHT22;39156;51.176;6.738;2024-01-30T14:00:46;11.40;83.00
53268;DHT22;39156;51.176;6.738;2024-01-30T14:03:12;11.20;82.80
53268;DHT22;39156;51.176;6.738;2024-01-30T14:05:41;11.40;82.90
53268;DHT22;39156;51.176;6.738;2024-01-30T14:08:08;11.40;82.70
53268;DHT22;39156;51.176;6.738;2024-01-30T14:10:35;11.50;82.70
53268;DHT22;39156;51.176;6.738;2024-01-30T14:13:02;11.50;82.60
53268;DHT22;39156;51.176;6.738;2024-01-30T14:15:28;11.50;82.60
53268;DHT22;39156;51.176;6.738;2024-01-30T14:17:55;11.60;82.50
53268;DHT22;39156;51.176;6.738;2024-01-30T14:20:22;11.60;82.40
53268;DHT22;39156;51.176;6.738;2024-01-30T14:22:50;11.60;82.30
53268;DHT22;39156;51.176;6.738;2024-01-30T14:25:18;11.70;82.40
53268;DHT22;39156;51.176;6.738;2024-01-30T14:27:45;11.60;82.50
53268;DHT22;39156;51.176;6.738;2024-01-30T14:30:12;11.60;82.50
53268;DHT22;39156;51.176;6.738;2024-01-30T14:32:39;11.60;82.40
53268;DHT22;39156;51.176;6.738;2024-01-30T14:35:08;11.70;82.40
53268;DHT22;39156;51.176;6.738;2024-01-30T14:37:35;11.70;81.90
53268;DHT22;39156;51.176;6.738;2024-01-30T14:40:06;11.60;81.80
53268;DHT22;39156;51.176;6.738;2024-01-30T14:42:34;11.70;82.00
53268;DHT22;39156;51.176;6.738;2024-01-30T14:45:01;11.70;82.00
53268;DHT22;39156;51.176;6.738;2024-01-30T14:47:29;11.60;81.90
53268;DHT22;39156;51.176;6.738;2024-01-30T14:49:56;11.60;81.90
53268;DHT22;39156;51.176;6.738;2024-01-30T14:52:23;11.70;81.90
53268;DHT22;39156;51.176;6.738;2024-01-30T14:54:50;11.70;82.10
53268;DHT22;39156;51.176;6.738;2024-01-30T14:57:18;11.60;81.70
53268;DHT22;39156;51.176;6.738;2024-01-30T14:59:45;11.60;81.60
53268;DHT22;39156;51.176;6.738;2024-01-30T15:02:13;11.60;81.60
53268;DHT22;39156;51.176;6.738;2024-01-30T15:04:41;11.60;81.50
53268;DHT22;39156;51.176;6.738;2024-01-30T15:07:08;11.60;81.40
53268;DHT22;39156;51.176;6.738;2024-01-30T15:09:35;11.60;81.40
53268;DHT22;39156;51.176;6.738;2024-01-30T15:12:02;11.60;81.20
53268;DHT22;39156;51.176;6.738;2024-01-30T15:14:30;11.50;80.80
53268;DHT22;39156;51.176;6.738;2024-01-30T15:16:57;11.50;80.20
53268;DHT22;39156;51.176;6.738;2024-01-30T15:19:24;11.40;80.10
53268;DHT22;39156;51.176;6.738;2024-01-30T15:21:51;11.50;80.30
53268;DHT22;39156;51.176;6.738;2024-01-30T15:24:18;11.30;79.80
53268;DHT22;39156;51.176;6.738;2024-01-30T15:26:49;11.20;79.10
53268;DHT22;39156;51.176;6.738;2024-01-30T15:29:16;11.20;78.90
53268;DHT22;39156;51.176;6.738;2024-01-30T15:31:44;11.30;78.70
53268;DHT22;39156;51.176;6.738;2024-01-30T15:34:11;11.30;78.40
53268;DHT22;39156;51.176;6.738;2024-01-30T15:36:38;11.20;78.40
53268;DHT22;39156;51.176;6.738;2024-01-30T15:39:05;11.10;78.20
53268;DHT22;39156;51.176;6.738;2024-01-30T15:41:32;11.10;78.20
53268;DHT22;39156;51.176;6.738;2024-01-30T15:43:59;11.20;78.20